KBHM/BHM METAR and TAF weather

Enter ICAO airport designator
Station Type Date Time Source
KBHM METAR 2022/12/08 11:53 UTC NOAA

KBHM 081153Z 24003KT 9SM FEW031 BKN055 17/16 A3025 RMK AO2 SLP238 T01670156 10167 20144 55000


Station Type Date Time Source
KBHM Decoded METAR 2022/12/08 11:53 UTC NOAA

BIRMINGHAM INT'L AIRPORT, AL, United States (KBHM) 33-34N 086-45W 197M
Dec 08, 2022 - 06:53 AM EST / 2022.12.08 1153 UTC
Wind: from the WSW (240 degrees) at 3 MPH (3 KT):0
Visibility: 9 mile(s):0
Sky conditions: mostly cloudy
Temperature: 62.1 F (16.7 C)
Dew Point: 60.1 F (15.6 C)
Relative Humidity: 93%
Pressure (altimeter): 30.25 in. Hg (1024 hPa)
Pressure tendency: 0.00 inches (0.0 hPa) lower than three hours ago
ob: KBHM 081153Z 24003KT 9SM FEW031 BKN055 17/16 A3025 RMK AO2 SLP238 T01670156 10167 20144 55000
cycle: 12

Station Type Date Time Source
KBHM TAF 2022/12/08 12:24 UTC NOAA

TAF KBHM 081122Z 0812/0912 00000KT P6SM BKN040
FM081500 23005KT P6SM BKN045
FM081700 24007KT P6SM SCT050
FM082300 VRB03KT P6SM FEW060
FM090800 00000KT P6SM BKN013
FM091000 00000KT P6SM BKN008

Example: see airport list